sensor_id;sensor_type;location;lat;lon;timestamp;pressure;altitude;pressure_sealevel;temperature;humidity
8318;BME280;4196;48.926;8.964;2023-02-14T00:02:48;100953.78;;;-1.97;100.00
8318;BME280;4196;48.926;8.964;2023-02-14T00:05:34;100942.69;;;-2.09;100.00
8318;BME280;4196;48.926;8.964;2023-02-14T00:08:21;100903.19;;;-2.28;100.00
8318;BME280;4196;48.926;8.964;2023-02-14T00:11:07;100956.31;;;-1.97;100.00
8318;BME280;4196;48.926;8.964;2023-02-14T00:13:55;100950.16;;;-2.11;100.00
8318;BME280;4196;48.926;8.964;2023-02-14T00:17:00;100894.34;;;-2.43;100.00
8318;BME280;4196;48.926;8.964;2023-02-14T00:19:46;100867.78;;;-2.58;100.00
8318;BME280;4196;48.926;8.964;2023-02-14T00:22:32;100928.84;;;-2.35;100.00
8318;BME280;4196;48.926;8.964;2023-02-14T00:25:19;100920.22;;;-2.37;100.00
8318;BME280;4196;48.926;8.964;2023-02-14T00:28:05;100907.56;;;-2.47;100.00
8318;BME280;4196;48.926;8.964;2023-02-14T00:30:52;100939.97;;;-2.33;100.00
8318;BME280;4196;48.926;8.964;2023-02-14T00:33:40;100965.59;;;-2.30;100.00
8318;BME280;4196;48.926;8.964;2023-02-14T00:36:26;100968.72;;;-2.22;100.00
8318;BME280;4196;48.926;8.964;2023-02-14T00:39:14;100970.03;;;-2.27;100.00
8318;BME280;4196;48.926;8.964;2023-02-14T00:42:00;100962.56;;;-2.36;100.00
8318;BME280;4196;48.926;8.964;2023-02-14T00:44:47;100962.81;;;-2.33;100.00
8318;BME280;4196;48.926;8.964;2023-02-14T00:47:33;100954.47;;;-2.42;100.00
8318;BME280;4196;48.926;8.964;2023-02-14T00:50:19;100945.88;;;-2.54;100.00
8318;BME280;4196;48.926;8.964;2023-02-14T00:53:05;100965.31;;;-2.23;100.00
8318;BME280;4196;48.926;8.964;2023-02-14T00:55:52;100929.09;;;-2.32;100.00
8318;BME280;4196;48.926;8.964;2023-02-14T00:58:39;100929.16;;;-2.52;100.00
8318;BME280;4196;48.926;8.964;2023-02-14T01:01:25;100936.16;;;-2.28;100.00
8318;BME280;4196;48.926;8.964;2023-02-14T01:04:12;100917.38;;;-2.62;100.00
8318;BME280;4196;48.926;8.964;2023-02-14T01:06:58;100848.19;;;-3.13;100.00
8318;BME280;4196;48.926;8.964;2023-02-14T01:09:45;100943.78;;;-2.70;100.00
8318;BME280;4196;48.926;8.964;2023-02-14T01:12:31;100930.06;;;-2.62;100.00
8318;BME280;4196;48.926;8.964;2023-02-14T01:15:19;100932.56;;;-2.52;100.00
8318;BME280;4196;48.926;8.964;2023-02-14T01:18:05;100965.72;;;-2.28;100.00
8318;BME280;4196;48.926;8.964;2023-02-14T01:20:52;100965.31;;;-2.23;100.00
8318;BME280;4196;48.926;8.964;2023-02-14T01:23:39;100939.69;;;-2.58;100.00
8318;BME280;4196;48.926;8.964;2023-02-14T01:26:27;100870.44;;;-2.89;100.00
8318;BME280;4196;48.926;8.964;2023-02-14T01:29:31;100925.75;;;-2.63;100.00
8318;BME280;4196;48.926;8.964;2023-02-14T01:32:37;100925.59;;;-2.86;100.00
8318;BME280;4196;48.926;8.964;2023-02-14T01:35:41;100915.44;;;-2.97;100.00
8318;BME280;4196;48.926;8.964;2023-02-14T01:39:06;100945.59;;;-2.89;100.00
8318;BME280;4196;48.926;8.964;2023-02-14T01:41:53;100965.09;;;-2.78;100.00
8318;BME280;4196;48.926;8.964;2023-02-14T01:47:33;100955.06;;;-2.77;100.00
8318;BME280;4196;48.926;8.964;2023-02-14T01:50:33;100960.28;;;-2.85;100.00
8318;BME280;4196;48.926;8.964;2023-02-14T01:53:25;100935.72;;;-2.97;100.00
8318;BME280;4196;48.926;8.964;2023-02-14T01:56:20;100953.56;;;-2.95;100.00
8318;BME280;4196;48.926;8.964;2023-02-14T01:59:11;100958.44;;;-2.98;100.00
8318;BME280;4196;48.926;8.964;2023-02-14T02:02:02;100969.03;;;-3.02;100.00
8318;BME280;4196;48.926;8.964;2023-02-14T02:04:50;100959.06;;;-3.11;100.00
8318;BME280;4196;48.926;8.964;2023-02-14T02:07:39;100953.09;;;-3.11;100.00
8318;BME280;4196;48.926;8.964;2023-02-14T02:10:25;100973.63;;;-3.08;100.00
8318;BME280;4196;48.926;8.964;2023-02-14T02:13:17;100979.56;;;-3.08;100.00
8318;BME280;4196;48.926;8.964;2023-02-14T02:16:25;100966.53;;;-3.12;100.00
8318;BME280;4196;48.926;8.964;2023-02-14T02:22:19;100971.19;;;-3.17;100.00
8318;BME280;4196;48.926;8.964;2023-02-14T02:31:58;100960.97;;;-2.98;100.00
8318;BME280;4196;48.926;8.964;2023-02-14T02:38:30;100960.06;;;-3.19;100.00
8318;BME280;4196;48.926;8.964;2023-02-14T02:44:42;100955.91;;;-3.19;100.00
8318;BME280;4196;48.926;8.964;2023-02-14T02:50:41;100926.03;;;-3.53;100.00
8318;BME280;4196;48.926;8.964;2023-02-14T02:54:12;100921.22;;;-3.60;100.00
8318;BME280;4196;48.926;8.964;2023-02-14T02:57:04;100892.31;;;-3.83;100.00
8318;BME280;4196;48.926;8.964;2023-02-14T02:59:54;100893.06;;;-3.84;100.00
8318;BME280;4196;48.926;8.964;2023-02-14T03:02:49;100955.38;;;-3.45;100.00
8318;BME280;4196;48.926;8.964;2023-02-14T03:05:55;100923.09;;;-3.68;100.00
8318;BME280;4196;48.926;8.964;2023-02-14T03:08:43;100953.59;;;-3.36;100.00
8318;BME280;4196;48.926;8.964;2023-02-14T03:11:29;100966.66;;;-3.42;100.00
8318;BME280;4196;48.926;8.964;2023-02-14T03:14:20;100960.69;;;-3.22;100.00
8318;BME280;4196;48.926;8.964;2023-02-14T03:17:24;100934.13;;;-3.17;100.00
8318;BME280;4196;48.926;8.964;2023-02-14T03:20:59;100958.69;;;-3.16;100.00
8318;BME280;4196;48.926;8.964;2023-02-14T03:30:23;100953.09;;;-3.22;100.00
8318;BME280;4196;48.926;8.964;2023-02-14T03:33:18;100949.53;;;-3.13;100.00
8318;BME280;4196;48.926;8.964;2023-02-14T03:39:26;100967.00;;;-2.86;100.00
8318;BME280;4196;48.926;8.964;2023-02-14T03:42:24;100966.75;;;-2.89;100.00
8318;BME280;4196;48.926;8.964;2023-02-14T03:45:17;100953.19;;;-2.79;100.00
8318;BME280;4196;48.926;8.964;2023-02-14T03:48:08;100939.41;;;-2.93;100.00
8318;BME280;4196;48.926;8.964;2023-02-14T03:50:56;100963.69;;;-2.75;100.00
8318;BME280;4196;48.926;8.964;2023-02-14T03:53:46;100919.91;;;-3.04;100.00
8318;BME280;4196;48.926;8.964;2023-02-14T03:56:44;100912.06;;;-3.07;100.00
8318;BME280;4196;48.926;8.964;2023-02-14T03:59:34;100913.97;;;-3.15;100.00
8318;BME280;4196;48.926;8.964;2023-02-14T04:02:22;100946.75;;;-2.86;100.00
8318;BME280;4196;48.926;8.964;2023-02-14T04:05:24;100956.72;;;-2.87;100.00
8318;BME280;4196;48.926;8.964;2023-02-14T04:08:22;100960.69;;;-3.01;100.00
8318;BME280;4196;48.926;8.964;2023-02-14T04:11:09;100949.44;;;-3.05;100.00
8318;BME280;4196;48.926;8.964;2023-02-14T04:13:55;100952.31;;;-2.90;100.00
8318;BME280;4196;48.926;8.964;2023-02-14T04:16:42;100874.34;;;-3.66;100.00
8318;BME280;4196;48.926;8.964;2023-02-14T04:19:46;100927.03;;;-3.41;100.00
8318;BME280;4196;48.926;8.964;2023-02-14T04:22:33;100937.03;;;-3.53;100.00
8318;BME280;4196;48.926;8.964;2023-02-14T04:25:20;100941.44;;;-3.50;100.00
8318;BME280;4196;48.926;8.964;2023-02-14T04:28:07;100955.88;;;-3.59;100.00
8318;BME280;4196;48.926;8.964;2023-02-14T04:30:53;100951.28;;;-3.74;100.00
8318;BME280;4196;48.926;8.964;2023-02-14T04:33:40;100914.28;;;-4.02;100.00
8318;BME280;4196;48.926;8.964;2023-02-14T04:36:26;100952.91;;;-3.84;100.00
8318;BME280;4196;48.926;8.964;2023-02-14T04:39:12;100953.53;;;-3.87;100.00
8318;BME280;4196;48.926;8.964;2023-02-14T04:41:59;100947.31;;;-3.91;100.00
8318;BME280;4196;48.926;8.964;2023-02-14T04:44:45;100905.16;;;-4.10;100.00
8318;BME280;4196;48.926;8.964;2023-02-14T04:47:31;100939.91;;;-3.79;100.00
8318;BME280;4196;48.926;8.964;2023-02-14T04:50:18;100933.06;;;-3.90;100.00
8318;BME280;4196;48.926;8.964;2023-02-14T04:53:04;100934.22;;;-3.86;100.00
8318;BME280;4196;48.926;8.964;2023-02-14T04:55:50;100923.28;;;-3.96;100.00
8318;BME280;4196;48.926;8.964;2023-02-14T04:58:37;100917.19;;;-4.08;100.00
8318;BME280;4196;48.926;8.964;2023-02-14T05:01:23;100932.00;;;-4.02;100.00
8318;BME280;4196;48.926;8.964;2023-02-14T05:04:10;100901.88;;;-4.20;100.00
8318;BME280;4196;48.926;8.964;2023-02-14T05:06:56;100944.16;;;-3.98;100.00
8318;BME280;4196;48.926;8.964;2023-02-14T05:09:43;100894.53;;;-4.17;100.00
8318;BME280;4196;48.926;8.964;2023-02-14T05:12:29;100911.28;;;-3.88;100.00
8318;BME280;4196;48.926;8.964;2023-02-14T05:15:15;100919.91;;;-3.86;100.00
8318;BME280;4196;48.926;8.964;2023-02-14T05:18:02;100929.03;;;-3.78;100.00
8318;BME280;4196;48.926;8.964;2023-02-14T05:20:52;100939.25;;;-3.76;100.00
8318;BME280;4196;48.926;8.964;2023-02-14T05:23:39;100910.28;;;-3.80;100.00
8318;BME280;4196;48.926;8.964;2023-02-14T05:26:26;100940.94;;;-3.56;100.00
8318;BME280;4196;48.926;8.964;2023-02-14T05:29:13;100895.09;;;-4.00;100.00
8318;BME280;4196;48.926;8.964;2023-02-14T05:31:59;100932.72;;;-3.64;100.00
8318;BME280;4196;48.926;8.964;2023-02-14T05:34:46;100908.91;;;-3.86;100.00
8318;BME280;4196;48.926;8.964;2023-02-14T05:37:32;100908.72;;;-4.08;100.00
8318;BME280;4196;48.926;8.964;2023-02-14T05:40:18;100908.50;;;-4.01;100.00
8318;BME280;4196;48.926;8.964;2023-02-14T05:43:05;100945.22;;;-3.76;100.00
8318;BME280;4196;48.926;8.964;2023-02-14T05:45:51;100923.16;;;-3.87;100.00
8318;BME280;4196;48.926;8.964;2023-02-14T05:48:39;100901.38;;;-4.05;100.00
8318;BME280;4196;48.926;8.964;2023-02-14T05:51:25;100949.66;;;-3.73;100.00
8318;BME280;4196;48.926;8.964;2023-02-14T05:54:12;100919.09;;;-4.05;100.00
8318;BME280;4196;48.926;8.964;2023-02-14T05:56:58;100931.50;;;-4.08;100.00
8318;BME280;4196;48.926;8.964;2023-02-14T05:59:45;100960.41;;;-3.86;100.00
8318;BME280;4196;48.926;8.964;2023-02-14T06:02:31;100951.25;;;-3.94;100.00
8318;BME280;4196;48.926;8.964;2023-02-14T06:05:18;100958.59;;;-3.87;100.00
8318;BME280;4196;48.926;8.964;2023-02-14T06:08:05;100927.09;;;-4.01;100.00
8318;BME280;4196;48.926;8.964;2023-02-14T06:10:51;100928.63;;;-3.93;100.00
8318;BME280;4196;48.926;8.964;2023-02-14T06:13:37;100948.78;;;-3.63;100.00
8318;BME280;4196;48.926;8.964;2023-02-14T06:16:26;100928.75;;;-4.01;100.00
8318;BME280;4196;48.926;8.964;2023-02-14T06:19:13;100958.25;;;-3.61;100.00
8318;BME280;4196;48.926;8.964;2023-02-14T06:22:00;100962.16;;;-3.85;100.00
8318;BME280;4196;48.926;8.964;2023-02-14T06:24:46;100930.53;;;-3.80;100.00
8318;BME280;4196;48.926;8.964;2023-02-14T06:27:33;100965.00;;;-3.51;100.00
8318;BME280;4196;48.926;8.964;2023-02-14T06:30:19;100918.78;;;-3.69;100.00
8318;BME280;4196;48.926;8.964;2023-02-14T06:33:05;100973.84;;;-3.46;100.00
8318;BME280;4196;48.926;8.964;2023-02-14T06:35:52;100914.34;;;-3.82;100.00
8318;BME280;4196;48.926;8.964;2023-02-14T06:38:39;100959.19;;;-3.40;100.00
8318;BME280;4196;48.926;8.964;2023-02-14T06:41:26;100977.28;;;-3.35;100.00
8318;BME280;4196;48.926;8.964;2023-02-14T06:44:13;100974.13;;;-3.43;100.00
8318;BME280;4196;48.926;8.964;2023-02-14T06:46:59;100928.91;;;-3.59;100.00
8318;BME280;4196;48.926;8.964;2023-02-14T06:49:46;100924.22;;;-3.65;100.00
8318;BME280;4196;48.926;8.964;2023-02-14T06:52:32;100924.34;;;-3.63;100.00
8318;BME280;4196;48.926;8.964;2023-02-14T06:55:19;100917.41;;;-3.55;100.00
8318;BME280;4196;48.926;8.964;2023-02-14T06:58:05;100952.06;;;-3.65;100.00
8318;BME280;4196;48.926;8.964;2023-02-14T07:00:54;100948.38;;;-3.78;100.00
8318;BME280;4196;48.926;8.964;2023-02-14T07:03:40;100930.25;;;-3.83;100.00
8318;BME280;4196;48.926;8.964;2023-02-14T07:06:27;100955.75;;;-3.41;100.00
8318;BME280;4196;48.926;8.964;2023-02-14T07:09:14;100943.22;;;-3.29;100.00
8318;BME280;4196;48.926;8.964;2023-02-14T07:12:03;100950.69;;;-3.10;100.00
8318;BME280;4196;48.926;8.964;2023-02-14T07:14:49;100967.63;;;-2.88;100.00
8318;BME280;4196;48.926;8.964;2023-02-14T07:17:36;100927.00;;;-3.21;100.00
8318;BME280;4196;48.926;8.964;2023-02-14T07:20:23;100925.34;;;-3.00;100.00
8318;BME280;4196;48.926;8.964;2023-02-14T07:23:10;100953.06;;;-2.91;100.00
8318;BME280;4196;48.926;8.964;2023-02-14T07:25:56;100924.03;;;-2.84;100.00
8318;BME280;4196;48.926;8.964;2023-02-14T07:28:46;100914.41;;;-2.88;100.00
8318;BME280;4196;48.926;8.964;2023-02-14T07:31:36;100943.72;;;-2.50;100.00
8318;BME280;4196;48.926;8.964;2023-02-14T07:34:23;100949.72;;;-2.59;100.00
8318;BME280;4196;48.926;8.964;2023-02-14T07:37:09;100915.50;;;-2.64;100.00
8318;BME280;4196;48.926;8.964;2023-02-14T07:39:56;100918.50;;;-2.58;100.00
8318;BME280;4196;48.926;8.964;2023-02-14T07:42:42;100958.28;;;-2.47;100.00
8318;BME280;4196;48.926;8.964;2023-02-14T07:45:29;100962.81;;;-2.33;100.00
8318;BME280;4196;48.926;8.964;2023-02-14T07:48:15;100943.72;;;-2.50;100.00
8318;BME280;4196;48.926;8.964;2023-02-14T07:51:02;100923.81;;;-2.55;100.00
8318;BME280;4196;48.926;8.964;2023-02-14T07:53:49;100968.97;;;-2.19;100.00
8318;BME280;4196;48.926;8.964;2023-02-14T07:56:35;100970.22;;;-2.14;100.00
8318;BME280;4196;48.926;8.964;2023-02-14T07:59:21;100943.38;;;-2.00;100.00
8318;BME280;4196;48.926;8.964;2023-02-14T08:02:11;100915.75;;;-2.07;100.00
8318;BME280;4196;48.926;8.964;2023-02-14T08:04:58;100966.47;;;-1.75;100.00
8318;BME280;4196;48.926;8.964;2023-02-14T08:07:44;100961.97;;;-1.67;100.00
8318;BME280;4196;48.926;8.964;2023-02-14T08:10:33;100951.50;;;-1.60;100.00
8318;BME280;4196;48.926;8.964;2023-02-14T08:13:20;100953.44;;;-1.46;100.00
8318;BME280;4196;48.926;8.964;2023-02-14T08:16:07;100943.22;;;-1.36;100.00
8318;BME280;4196;48.926;8.964;2023-02-14T08:18:55;100933.94;;;-1.24;100.00
8318;BME280;4196;48.926;8.964;2023-02-14T08:21:41;100953.03;;;-0.95;100.00
8318;BME280;4196;48.926;8.964;2023-02-14T08:24:27;100910.22;;;-1.12;100.00
8318;BME280;4196;48.926;8.964;2023-02-14T08:27:14;100902.34;;;-1.15;100.00
8318;BME280;4196;48.926;8.964;2023-02-14T08:30:00;100910.13;;;-1.02;100.00
8318;BME280;4196;48.926;8.964;2023-02-14T08:32:46;100937.78;;;-0.71;100.00
8318;BME280;4196;48.926;8.964;2023-02-14T08:35:33;100949.03;;;-0.56;100.00
8318;BME280;4196;48.926;8.964;2023-02-14T08:38:20;100933.34;;;-0.51;100.00
8318;BME280;4196;48.926;8.964;2023-02-14T08:41:06;100924.28;;;-0.47;100.00
8318;BME280;4196;48.926;8.964;2023-02-14T08:43:55;100912.28;;;-0.25;100.00
8318;BME280;4196;48.926;8.964;2023-02-14T08:46:41;100911.16;;;-0.16;100.00
8318;BME280;4196;48.926;8.964;2023-02-14T08:49:27;100932.38;;;-0.04;100.00
8318;BME280;4196;48.926;8.964;2023-02-14T08:52:14;100903.41;;;-0.18;100.00
8318;BME280;4196;48.926;8.964;2023-02-14T08:55:01;100932.09;;;0.16;100.00
8318;BME280;4196;48.926;8.964;2023-02-14T08:57:47;100896.66;;;0.19;100.00
8318;BME280;4196;48.926;8.964;2023-02-14T09:00:34;100933.09;;;0.43;100.00
8318;BME280;4196;48.926;8.964;2023-02-14T09:03:20;100900.66;;;0.16;100.00
8318;BME280;4196;48.926;8.964;2023-02-14T09:06:10;100938.19;;;0.43;100.00
8318;BME280;4196;48.926;8.964;2023-02-14T09:08:57;100914.72;;;0.36;100.00
8318;BME280;4196;48.926;8.964;2023-02-14T09:11:46;100900.53;;;0.39;100.00
8318;BME280;4196;48.926;8.964;2023-02-14T09:14:41;100924.09;;;0.87;100.00
8318;BME280;4196;48.926;8.964;2023-02-14T09:17:31;100909.22;;;0.93;100.00
8318;BME280;4196;48.926;8.964;2023-02-14T09:20:17;100899.97;;;0.95;100.00
8318;BME280;4196;48.926;8.964;2023-02-14T09:23:04;100889.78;;;0.95;100.00
8318;BME280;4196;48.926;8.964;2023-02-14T09:25:50;100889.59;;;1.05;100.00
8318;BME280;4196;48.926;8.964;2023-02-14T09:28:37;100894.97;;;1.10;100.00
8318;BME280;4196;48.926;8.964;2023-02-14T09:31:24;100896.06;;;1.13;100.00
8318;BME280;4196;48.926;8.964;2023-02-14T09:34:11;100891.56;;;1.23;100.00
8318;BME280;4196;48.926;8.964;2023-02-14T09:37:16;100916.31;;;1.37;100.00
8318;BME280;4196;48.926;8.964;2023-02-14T09:40:22;100852.63;;;1.12;100.00
8318;BME280;4196;48.926;8.964;2023-02-14T09:43:20;100854.66;;;1.17;100.00
8318;BME280;4196;48.926;8.964;2023-02-14T09:46:10;100875.44;;;1.50;100.00
8318;BME280;4196;48.926;8.964;2023-02-14T09:49:01;100905.25;;;1.78;100.00
8318;BME280;4196;48.926;8.964;2023-02-14T09:51:50;100906.22;;;1.80;100.00
8318;BME280;4196;48.926;8.964;2023-02-14T09:54:39;100874.34;;;1.60;100.00
8318;BME280;4196;48.926;8.964;2023-02-14T10:03:46;100891.41;;;2.02;100.00
8318;BME280;4196;48.926;8.964;2023-02-14T10:06:45;100885.13;;;2.10;100.00
8318;BME280;4196;48.926;8.964;2023-02-14T10:12:33;100828.34;;;2.01;100.00
8318;BME280;4196;48.926;8.964;2023-02-14T10:15:27;100856.25;;;2.26;100.00
8318;BME280;4196;48.926;8.964;2023-02-14T10:21:43;100889.47;;;2.69;100.00
8318;BME280;4196;48.926;8.964;2023-02-14T10:24:43;100863.72;;;2.66;100.00
8318;BME280;4196;48.926;8.964;2023-02-14T10:27:31;100883.72;;;2.88;100.00
8318;BME280;4196;48.926;8.964;2023-02-14T10:30:21;100879.75;;;2.78;100.00
8318;BME280;4196;48.926;8.964;2023-02-14T10:33:16;100866.69;;;2.88;100.00
8318;BME280;4196;48.926;8.964;2023-02-14T10:36:10;100870.38;;;3.08;100.00
8318;BME280;4196;48.926;8.964;2023-02-14T10:45:38;100831.31;;;3.27;100.00
8318;BME280;4196;48.926;8.964;2023-02-14T10:48:53;100825.31;;;3.27;100.00
8318;BME280;4196;48.926;8.964;2023-02-14T10:54:59;100853.09;;;3.67;100.00
8318;BME280;4196;48.926;8.964;2023-02-14T10:57:50;100841.56;;;3.58;100.00
8318;BME280;4196;48.926;8.964;2023-02-14T11:00:46;100847.66;;;3.60;100.00
8318;BME280;4196;48.926;8.964;2023-02-14T11:03:37;100850.78;;;3.71;100.00
8318;BME280;4196;48.926;8.964;2023-02-14T11:06:24;100812.75;;;3.46;100.00
8318;BME280;4196;48.926;8.964;2023-02-14T11:09:11;100843.50;;;3.62;100.00
8318;BME280;4196;48.926;8.964;2023-02-14T11:11:58;100846.78;;;3.60;100.00
8318;BME280;4196;48.926;8.964;2023-02-14T11:14:45;100799.38;;;3.35;100.00
8318;BME280;4196;48.926;8.964;2023-02-14T11:17:31;100819.34;;;3.74;100.00
8318;BME280;4196;48.926;8.964;2023-02-14T11:23:20;100822.69;;;3.89;100.00
8318;BME280;4196;48.926;8.964;2023-02-14T11:26:22;100791.41;;;3.62;100.00
8318;BME280;4196;48.926;8.964;2023-02-14T11:29:12;100782.44;;;3.70;100.00
8318;BME280;4196;48.926;8.964;2023-02-14T11:32:24;100766.19;;;3.70;100.00
8318;BME280;4196;48.926;8.964;2023-02-14T11:35:18;100759.53;;;3.57;100.00
8318;BME280;4196;48.926;8.964;2023-02-14T11:38:26;100763.63;;;3.70;100.00
8318;BME280;4196;48.926;8.964;2023-02-14T11:41:14;100814.84;;;4.19;100.00
8318;BME280;4196;48.926;8.964;2023-02-14T11:44:13;100790.56;;;4.28;100.00
8318;BME280;4196;48.926;8.964;2023-02-14T11:47:27;100798.78;;;4.39;100.00
8318;BME280;4196;48.926;8.964;2023-02-14T11:50:22;100797.78;;;4.53;100.00
8318;BME280;4196;48.926;8.964;2023-02-14T11:53:11;100796.63;;;4.65;100.00
8318;BME280;4196;48.926;8.964;2023-02-14T11:55:58;100765.38;;;4.55;100.00
8318;BME280;4196;48.926;8.964;2023-02-14T11:58:53;100751.00;;;4.41;100.00
8318;BME280;4196;48.926;8.964;2023-02-14T12:01:44;100739.72;;;4.38;100.00
8318;BME280;4196;48.926;8.964;2023-02-14T12:04:34;100766.50;;;4.60;100.00
8318;BME280;4196;48.926;8.964;2023-02-14T12:07:36;100746.50;;;4.53;100.00
8318;BME280;4196;48.926;8.964;2023-02-14T12:10:34;100775.81;;;4.94;100.00
8318;BME280;4196;48.926;8.964;2023-02-14T12:13:23;100754.69;;;5.00;100.00
8318;BME280;4196;48.926;8.964;2023-02-14T12:16:19;100752.47;;;5.07;100.00
8318;BME280;4196;48.926;8.964;2023-02-14T12:19:12;100752.03;;;5.16;100.00
8318;BME280;4196;48.926;8.964;2023-02-14T12:22:04;100707.19;;;4.90;100.00
8318;BME280;4196;48.926;8.964;2023-02-14T12:25:13;100763.50;;;5.42;100.00
8318;BME280;4196;48.926;8.964;2023-02-14T12:28:09;100745.50;;;5.42;100.00
8318;BME280;4196;48.926;8.964;2023-02-14T12:30:57;100759.03;;;5.77;100.00
8318;BME280;4196;48.926;8.964;2023-02-14T12:33:44;100760.34;;;5.87;99.56
8318;BME280;4196;48.926;8.964;2023-02-14T12:43:02;100731.53;;;6.15;98.67
8318;BME280;4196;48.926;8.964;2023-02-14T12:59:16;100719.78;;;7.07;92.23
8318;BME280;4196;48.926;8.964;2023-02-14T13:05:44;100710.78;;;7.40;90.14
8318;BME280;4196;48.926;8.964;2023-02-14T13:15:00;100700.28;;;7.60;87.80
8318;BME280;4196;48.926;8.964;2023-02-14T13:17:54;100666.34;;;7.47;87.30
8318;BME280;4196;48.926;8.964;2023-02-14T13:20:55;100691.22;;;7.71;86.85
8318;BME280;4196;48.926;8.964;2023-02-14T13:23:45;100693.22;;;7.78;84.33
8318;BME280;4196;48.926;8.964;2023-02-14T13:26:37;100688.69;;;7.96;86.27
8318;BME280;4196;48.926;8.964;2023-02-14T13:29:40;100667.41;;;7.78;85.42
8318;BME280;4196;48.926;8.964;2023-02-14T13:32:38;100658.59;;;7.97;85.16
8318;BME280;4196;48.926;8.964;2023-02-14T13:35:27;100674.72;;;8.17;84.13
8318;BME280;4196;48.926;8.964;2023-02-14T13:38:15;100660.25;;;7.95;84.78
8318;BME280;4196;48.926;8.964;2023-02-14T13:41:03;100637.00;;;7.93;84.99
8318;BME280;4196;48.926;8.964;2023-02-14T13:43:57;100663.13;;;8.30;83.63
8318;BME280;4196;48.926;8.964;2023-02-14T13:46:48;100652.22;;;8.38;84.84
8318;BME280;4196;48.926;8.964;2023-02-14T13:49:36;100660.47;;;8.28;84.29
8318;BME280;4196;48.926;8.964;2023-02-14T13:52:46;100643.47;;;8.08;85.55
8318;BME280;4196;48.926;8.964;2023-02-14T13:55:35;100635.75;;;8.08;84.45
8318;BME280;4196;48.926;8.964;2023-02-14T13:58:28;100649.09;;;8.21;84.29
8318;BME280;4196;48.926;8.964;2023-02-14T14:01:42;100636.53;;;8.32;84.36
8318;BME280;4196;48.926;8.964;2023-02-14T14:04:34;100655.25;;;8.52;82.22
8318;BME280;4196;48.926;8.964;2023-02-14T14:07:27;100650.88;;;8.24;83.44
8318;BME280;4196;48.926;8.964;2023-02-14T14:10:45;100645.84;;;8.02;86.23
8318;BME280;4196;48.926;8.964;2023-02-14T14:16:33;100613.56;;;7.62;85.46
8318;BME280;4196;48.926;8.964;2023-02-14T14:22:08;100600.72;;;7.38;87.69
8318;BME280;4196;48.926;8.964;2023-02-14T14:25:02;100606.81;;;7.16;87.75
8318;BME280;4196;48.926;8.964;2023-02-14T14:27:50;100614.66;;;7.19;88.14
8318;BME280;4196;48.926;8.964;2023-02-14T14:30:37;100611.91;;;7.14;88.92
8318;BME280;4196;48.926;8.964;2023-02-14T14:33:31;100648.91;;;7.40;88.97
8318;BME280;4196;48.926;8.964;2023-02-14T14:36:22;100583.78;;;6.96;90.18
8318;BME280;4196;48.926;8.964;2023-02-14T14:39:09;100635.03;;;7.13;91.54
8318;BME280;4196;48.926;8.964;2023-02-14T14:42:04;100613.16;;;7.01;91.19
8318;BME280;4196;48.926;8.964;2023-02-14T14:44:58;100610.28;;;7.18;90.21
8318;BME280;4196;48.926;8.964;2023-02-14T14:47:47;100628.41;;;7.19;92.35
8318;BME280;4196;48.926;8.964;2023-02-14T14:50:34;100601.09;;;7.00;93.54
8318;BME280;4196;48.926;8.964;2023-02-14T14:53:26;100618.75;;;6.90;94.93
8318;BME280;4196;48.926;8.964;2023-02-14T14:56:19;100590.25;;;6.85;94.77
8318;BME280;4196;48.926;8.964;2023-02-14T15:02:03;100627.31;;;7.13;94.49
8318;BME280;4196;48.926;8.964;2023-02-14T15:05:27;100626.63;;;6.94;95.56
8318;BME280;4196;48.926;8.964;2023-02-14T15:11:22;100587.59;;;6.60;96.86
8318;BME280;4196;48.926;8.964;2023-02-14T15:14:31;100621.53;;;6.73;98.54
8318;BME280;4196;48.926;8.964;2023-02-14T15:17:28;100620.66;;;6.73;97.38
8318;BME280;4196;48.926;8.964;2023-02-14T15:20:19;100561.06;;;6.40;97.88
8318;BME280;4196;48.926;8.964;2023-02-14T15:23:16;100581.25;;;6.51;97.28
8318;BME280;4196;48.926;8.964;2023-02-14T15:26:04;100613.91;;;6.75;97.24
8318;BME280;4196;48.926;8.964;2023-02-14T15:29:21;100618.69;;;6.66;97.90
8318;BME280;4196;48.926;8.964;2023-02-14T15:32:09;100590.63;;;6.49;98.43
8318;BME280;4196;48.926;8.964;2023-02-14T15:34:57;100588.63;;;6.42;98.45
8318;BME280;4196;48.926;8.964;2023-02-14T15:37:44;100589.53;;;6.22;99.47
8318;BME280;4196;48.926;8.964;2023-02-14T15:40:33;100582.03;;;6.05;100.00
8318;BME280;4196;48.926;8.964;2023-02-14T15:43:32;100579.03;;;5.95;100.00
8318;BME280;4196;48.926;8.964;2023-02-14T15:49:18;100616.31;;;6.27;100.00
8318;BME280;4196;48.926;8.964;2023-02-14T15:52:06;100604.34;;;6.07;100.00
8318;BME280;4196;48.926;8.964;2023-02-14T15:54:52;100559.94;;;5.90;100.00
8318;BME280;4196;48.926;8.964;2023-02-14T15:57:39;100585.72;;;5.91;100.00
8318;BME280;4196;48.926;8.964;2023-02-14T16:00:30;100558.38;;;5.72;100.00
8318;BME280;4196;48.926;8.964;2023-02-14T16:03:22;100615.63;;;5.89;100.00
8318;BME280;4196;48.926;8.964;2023-02-14T16:06:37;100619.78;;;5.66;100.00
8318;BME280;4196;48.926;8.964;2023-02-14T16:09:27;100622.03;;;5.58;100.00
8318;BME280;4196;48.926;8.964;2023-02-14T16:12:30;100620.56;;;5.44;100.00
8318;BME280;4196;48.926;8.964;2023-02-14T16:15:19;100617.22;;;5.45;100.00
8318;BME280;4196;48.926;8.964;2023-02-14T16:21:29;100619.50;;;5.00;100.00
8318;BME280;4196;48.926;8.964;2023-02-14T16:24:19;100595.00;;;4.88;100.00
8318;BME280;4196;48.926;8.964;2023-02-14T16:27:05;100583.41;;;4.58;100.00
8318;BME280;4196;48.926;8.964;2023-02-14T16:29:57;100599.75;;;4.60;100.00
8318;BME280;4196;48.926;8.964;2023-02-14T16:32:50;100629.06;;;4.66;100.00
8318;BME280;4196;48.926;8.964;2023-02-14T16:35:38;100633.75;;;4.56;100.00
8318;BME280;4196;48.926;8.964;2023-02-14T16:38:25;100601.53;;;4.26;100.00
8318;BME280;4196;48.926;8.964;2023-02-14T16:41:16;100623.53;;;4.21;100.00
8318;BME280;4196;48.926;8.964;2023-02-14T16:44:03;100603.00;;;3.85;100.00
8318;BME280;4196;48.926;8.964;2023-02-14T16:46:50;100625.72;;;3.79;100.00
8318;BME280;4196;48.926;8.964;2023-02-14T16:49:36;100605.25;;;3.45;100.00
8318;BME280;4196;48.926;8.964;2023-02-14T16:52:25;100583.66;;;3.23;100.00
8318;BME280;4196;48.926;8.964;2023-02-14T16:55:15;100624.38;;;3.35;100.00
8318;BME280;4196;48.926;8.964;2023-02-14T16:58:02;100637.53;;;3.25;100.00
8318;BME280;4196;48.926;8.964;2023-02-14T17:00:48;100591.63;;;2.95;100.00